sensor_id;sensor_type;location;lat;lon;timestamp;P1;P2;P0
31163;PMS5003;17796;49.296;-117.656;2024-01-11T00:12:53;41;33;
31163;PMS5003;17796;49.296;-117.656;2024-01-11T00:27:57;33;28;
31163;PMS5003;17796;49.296;-117.656;2024-01-11T00:43:01;33;25;
31163;PMS5003;17796;49.296;-117.656;2024-01-11T00:58:04;27;23;
31163;PMS5003;17796;49.296;-117.656;2024-01-11T01:13:08;35;30;
31163;PMS5003;17796;49.296;-117.656;2024-01-11T01:28:12;36;28;
31163;PMS5003;17796;49.296;-117.656;2024-01-11T01:43:15;39;30;
31163;PMS5003;17796;49.296;-117.656;2024-01-11T01:58:19;28;24;
31163;PMS5003;17796;49.296;-117.656;2024-01-11T02:13:23;24;21;
31163;PMS5003;17796;49.296;-117.656;2024-01-11T02:28:27;3;1;
31163;PMS5003;17796;49.296;-117.656;2024-01-11T02:43:31;1;0;
31163;PMS5003;17796;49.296;-117.656;2024-01-11T02:58:34;0;0;
31163;PMS5003;17796;49.296;-117.656;2024-01-11T03:13:39;0;0;
31163;PMS5003;17796;49.296;-117.656;2024-01-11T03:28:43;0;0;
31163;PMS5003;17796;49.296;-117.656;2024-01-11T03:43:47;1;1;
31163;PMS5003;17796;49.296;-117.656;2024-01-11T03:58:51;0;0;
31163;PMS5003;17796;49.296;-117.656;2024-01-11T04:13:54;1;0;
31163;PMS5003;17796;49.296;-117.656;2024-01-11T04:28:58;0;0;
31163;PMS5003;17796;49.296;-117.656;2024-01-11T04:44:07;0;0;
31163;PMS5003;17796;49.296;-117.656;2024-01-11T04:59:11;0;0;
31163;PMS5003;17796;49.296;-117.656;2024-01-11T05:14:14;1;0;
31163;PMS5003;17796;49.296;-117.656;2024-01-11T05:29:18;0;0;
31163;PMS5003;17796;49.296;-117.656;2024-01-11T05:44:22;0;0;
31163;PMS5003;17796;49.296;-117.656;2024-01-11T05:59:26;1;0;
31163;PMS5003;17796;49.296;-117.656;2024-01-11T06:14:30;0;0;
31163;PMS5003;17796;49.296;-117.656;2024-01-11T06:29:33;1;1;
31163;PMS5003;17796;49.296;-117.656;2024-01-11T06:44:37;1;1;
31163;PMS5003;17796;49.296;-117.656;2024-01-11T06:59:41;2;0;
31163;PMS5003;17796;49.296;-117.656;2024-01-11T07:14:44;2;2;
31163;PMS5003;17796;49.296;-117.656;2024-01-11T07:29:48;1;1;
31163;PMS5003;17796;49.296;-117.656;2024-01-11T07:44:51;1;1;
31163;PMS5003;17796;49.296;-117.656;2024-01-11T07:59:55;3;3;
31163;PMS5003;17796;49.296;-117.656;2024-01-11T08:15:00;2;2;
31163;PMS5003;17796;49.296;-117.656;2024-01-11T08:30:05;1;1;
31163;PMS5003;17796;49.296;-117.656;2024-01-11T08:45:08;1;1;
31163;PMS5003;17796;49.296;-117.656;2024-01-11T09:00:13;2;2;
31163;PMS5003;17796;49.296;-117.656;2024-01-11T09:15:17;2;2;
31163;PMS5003;17796;49.296;-117.656;2024-01-11T09:30:21;5;5;
31163;PMS5003;17796;49.296;-117.656;2024-01-11T09:45:25;1;1;
31163;PMS5003;17796;49.296;-117.656;2024-01-11T10:00:29;32;28;
31163;PMS5003;17796;49.296;-117.656;2024-01-11T10:15:34;2;2;
31163;PMS5003;17796;49.296;-117.656;2024-01-11T10:30:37;5;3;
31163;PMS5003;17796;49.296;-117.656;2024-01-11T10:45:41;1;1;
31163;PMS5003;17796;49.296;-117.656;2024-01-11T11:00:46;1;1;
31163;PMS5003;17796;49.296;-117.656;2024-01-11T11:15:50;2;1;
31163;PMS5003;17796;49.296;-117.656;2024-01-11T11:30:55;5;3;
31163;PMS5003;17796;49.296;-117.656;2024-01-11T11:46:03;9;9;
31163;PMS5003;17796;49.296;-117.656;2024-01-11T12:01:06;3;3;
31163;PMS5003;17796;49.296;-117.656;2024-01-11T12:16:11;10;9;
31163;PMS5003;17796;49.296;-117.656;2024-01-11T12:31:17;8;8;
31163;PMS5003;17796;49.296;-117.656;2024-01-11T12:46:20;6;6;
31163;PMS5003;17796;49.296;-117.656;2024-01-11T13:01:24;5;5;
31163;PMS5003;17796;49.296;-117.656;2024-01-11T13:16:28;8;8;
31163;PMS5003;17796;49.296;-117.656;2024-01-11T13:31:31;6;6;
31163;PMS5003;17796;49.296;-117.656;2024-01-11T13:46:35;6;5;
31163;PMS5003;17796;49.296;-117.656;2024-01-11T14:01:39;17;10;
31163;PMS5003;17796;49.296;-117.656;2024-01-11T14:16:42;6;6;
31163;PMS5003;17796;49.296;-117.656;2024-01-11T14:31:46;6;5;
31163;PMS5003;17796;49.296;-117.656;2024-01-11T14:46:49;4;4;
31163;PMS5003;17796;49.296;-117.656;2024-01-11T15:01:53;2;2;
31163;PMS5003;17796;49.296;-117.656;2024-01-11T15:16:57;5;5;
31163;PMS5003;17796;49.296;-117.656;2024-01-11T15:32:01;2;2;
31163;PMS5003;17796;49.296;-117.656;2024-01-11T15:47:08;2;2;
31163;PMS5003;17796;49.296;-117.656;2024-01-11T16:02:12;2;2;
31163;PMS5003;17796;49.296;-117.656;2024-01-11T16:17:15;4;2;
31163;PMS5003;17796;49.296;-117.656;2024-01-11T16:32:19;5;3;
31163;PMS5003;17796;49.296;-117.656;2024-01-11T16:47:22;5;5;
31163;PMS5003;17796;49.296;-117.656;2024-01-11T17:02:26;9;6;
31163;PMS5003;17796;49.296;-117.656;2024-01-11T17:17:30;5;3;
31163;PMS5003;17796;49.296;-117.656;2024-01-11T17:32:33;9;6;
31163;PMS5003;17796;49.296;-117.656;2024-01-11T17:47:37;9;8;
31163;PMS5003;17796;49.296;-117.656;2024-01-11T18:02:40;11;10;
31163;PMS5003;17796;49.296;-117.656;2024-01-11T18:17:44;10;10;
31163;PMS5003;17796;49.296;-117.656;2024-01-11T18:32:47;8;8;
31163;PMS5003;17796;49.296;-117.656;2024-01-11T18:47:51;6;6;
31163;PMS5003;17796;49.296;-117.656;2024-01-11T19:02:56;6;6;
31163;PMS5003;17796;49.296;-117.656;2024-01-11T19:18:00;38;38;
31163;PMS5003;17796;49.296;-117.656;2024-01-11T19:33:03;6;2;
31163;PMS5003;17796;49.296;-117.656;2024-01-11T19:48:07;2;2;
31163;PMS5003;17796;49.296;-117.656;2024-01-11T20:03:11;9;9;
31163;PMS5003;17796;49.296;-117.656;2024-01-11T20:18:14;10;3;
31163;PMS5003;17796;49.296;-117.656;2024-01-11T20:33:18;8;5;
31163;PMS5003;17796;49.296;-117.656;2024-01-11T20:48:22;1;1;
31163;PMS5003;17796;49.296;-117.656;2024-01-11T21:03:25;3;2;
31163;PMS5003;17796;49.296;-117.656;2024-01-11T21:18:29;7;6;
31163;PMS5003;17796;49.296;-117.656;2024-01-11T21:33:32;5;5;
31163;PMS5003;17796;49.296;-117.656;2024-01-11T21:48:36;6;5;
31163;PMS5003;17796;49.296;-117.656;2024-01-11T22:03:39;10;9;
31163;PMS5003;17796;49.296;-117.656;2024-01-11T22:18:42;9;3;
31163;PMS5003;17796;49.296;-117.656;2024-01-11T22:33:46;2;2;
31163;PMS5003;17796;49.296;-117.656;2024-01-11T22:48:50;3;3;
31163;PMS5003;17796;49.296;-117.656;2024-01-11T23:03:53;6;6;
31163;PMS5003;17796;49.296;-117.656;2024-01-11T23:18:57;6;4;
31163;PMS5003;17796;49.296;-117.656;2024-01-11T23:34:01;5;3;
31163;PMS5003;17796;49.296;-117.656;2024-01-11T23:49:06;6;3;
